Time;durP1;ratioP1;P1;durP2;ratioP2;P2;SDS_P1;SDS_P2;PMS_P1;PMS_P2;Temp;Humidity;BMP_temperature;BMP_pressure;BME280_temperature;BME280_humidity;BME280_pressure;Samples;Min_cycle;Max_cycle;Signal;HPM_P1;HPM_P2
2022/08/31 00:05:33;;;;;;;0.40;0.20;;;;;;;;;;5142767;27;20224;-60
2022/08/31 00:08:21;;;;;;;0.47;0.47;;;;;;;;;;5130399;27;20380;-59
2022/08/31 00:11:12;;;;;;;0.90;0.40;;;;;;;;;;5133638;27;20245;-59
2022/08/31 00:14:02;;;;;;;0.20;0.20;;;;;;;;;;5133099;27;20208;-60
2022/08/31 00:16:49;;;;;;;0.40;0.40;;;;;;;;;;5135381;27;20709;-59
2022/08/31 00:19:36;;;;;;;0.30;0.30;;;;;;;;;;5132445;27;20331;-59
2022/08/31 00:22:22;;;;;;;0.43;0.40;;;;;;;;;;5140473;27;20283;-59
2022/08/31 00:25:11;;;;;;;0.50;0.50;;;;;;;;;;5135382;27;20688;-59
2022/08/31 00:27:58;;;;;;;0.30;0.30;;;;;;;;;;5139505;27;20207;-59
2022/08/31 00:30:45;;;;;;;0.40;0.40;;;;;;;;;;5131582;27;20292;-59
2022/08/31 00:33:32;;;;;;;0.27;0.27;;;;;;;;;;5141232;27;20335;-59
2022/08/31 00:36:21;;;;;;;0.30;0.30;;;;;;;;;;5134857;27;20194;-59
2022/08/31 00:39:08;;;;;;;1.20;0.40;;;;;;;;;;5137988;27;20204;-59
2022/08/31 00:41:56;;;;;;;0.20;0.20;;;;;;;;;;5129950;27;20199;-60
2022/08/31 00:44:43;;;;;;;0.23;0.23;;;;;;;;;;5131297;27;20734;-60
2022/08/31 00:47:30;;;;;;;0.20;0.20;;;;;;;;;;5136389;27;20209;-59
2022/08/31 00:50:19;;;;;;;0.20;0.20;;;;;;;;;;5141167;27;20672;-60
2022/08/31 00:53:05;;;;;;;0.20;0.20;;;;;;;;;;5135038;27;20205;-59
2022/08/31 00:55:53;;;;;;;0.20;0.20;;;;;;;;;;5140501;27;20289;-60
2022/08/31 00:58:43;;;;;;;0.20;0.20;;;;;;;;;;5134544;27;20236;-59
2022/08/31 01:01:30;;;;;;;0.20;0.20;;;;;;;;;;5129904;27;20583;-59
2022/08/31 01:04:17;;;;;;;0.20;0.20;;;;;;;;;;5132594;27;20574;-60
2022/08/31 01:07:06;;;;;;;0.27;0.27;;;;;;;;;;5131208;27;20271;-59
2022/08/31 01:09:55;;;;;;;0.30;0.30;;;;;;;;;;5137804;27;20278;-59
2022/08/31 01:12:44;;;;;;;0.30;0.30;;;;;;;;;;5137459;27;21161;-60
2022/08/31 01:15:33;;;;;;;0.30;0.23;;;;;;;;;;5139643;27;21402;-60
2022/08/31 01:18:20;;;;;;;0.20;0.20;;;;;;;;;;5127976;27;20208;-59
2022/08/31 01:21:18;;;;;;;0.20;0.20;;;;;;;;;;5140896;27;20264;-59
2022/08/31 01:24:08;;;;;;;0.20;0.20;;;;;;;;;;5130465;27;20204;-59
2022/08/31 01:26:59;;;;;;;0.30;0.30;;;;;;;;;;5139457;27;20231;-59
2022/08/31 01:29:46;;;;;;;0.27;0.27;;;;;;;;;;5133681;27;20294;-59
2022/08/31 01:32:33;;;;;;;0.30;0.30;;;;;;;;;;5136096;27;20200;-59
2022/08/31 01:35:20;;;;;;;0.20;0.20;;;;;;;;;;5129144;27;20633;-59
2022/08/31 01:38:09;;;;;;;0.20;0.20;;;;;;;;;;5140343;27;20291;-60
2022/08/31 01:41:00;;;;;;;0.13;0.13;;;;;;;;;;5130434;27;20235;-59
2022/08/31 01:43:47;;;;;;;0.20;0.20;;;;;;;;;;5133082;27;20680;-59
2022/08/31 01:46:34;;;;;;;0.30;0.30;;;;;;;;;;5127554;27;20221;-59
2022/08/31 01:49:23;;;;;;;0.30;0.30;;;;;;;;;;5141453;27;20234;-59
2022/08/31 01:52:10;;;;;;;0.20;0.20;;;;;;;;;;5132013;27;20234;-59
2022/08/31 01:54:57;;;;;;;0.20;0.20;;;;;;;;;;5143385;27;20593;-59
2022/08/31 01:57:45;;;;;;;0.20;0.20;;;;;;;;;;5130199;27;20695;-59
2022/08/31 02:00:32;;;;;;;0.20;0.20;;;;;;;;;;5129677;27;20253;-59
2022/08/31 02:03:19;;;;;;;0.20;0.20;;;;;;;;;;5133220;27;20215;-60
2022/08/31 02:06:08;;;;;;;0.20;0.20;;;;;;;;;;5127387;28;20230;-59
2022/08/31 02:08:55;;;;;;;0.20;0.10;;;;;;;;;;5129697;28;20228;-59
2022/08/31 02:11:42;;;;;;;0.23;0.23;;;;;;;;;;5137909;27;20560;-59
2022/08/31 02:14:30;;;;;;;0.20;0.20;;;;;;;;;;5134704;27;20204;-60
2022/08/31 02:17:17;;;;;;;0.20;0.20;;;;;;;;;;5129128;27;20284;-59
2022/08/31 02:20:05;;;;;;;0.20;0.20;;;;;;;;;;5134608;27;20241;-59
2022/08/31 02:22:52;;;;;;;0.27;0.27;;;;;;;;;;5132530;27;20261;-59
2022/08/31 02:25:39;;;;;;;0.97;0.30;;;;;;;;;;5134253;27;20586;-59
2022/08/31 02:28:26;;;;;;;0.20;0.20;;;;;;;;;;5137739;27;20201;-59
2022/08/31 02:31:15;;;;;;;0.30;0.30;;;;;;;;;;5132227;27;20257;-59
2022/08/31 02:34:02;;;;;;;0.20;0.20;;;;;;;;;;5134672;27;20292;-59
2022/08/31 02:36:49;;;;;;;0.30;0.30;;;;;;;;;;5134685;27;20200;-59
2022/08/31 02:39:36;;;;;;;0.10;0.10;;;;;;;;;;5137919;27;20570;-59
2022/08/31 02:42:23;;;;;;;0.40;0.37;;;;;;;;;;5137267;27;20205;-59
2022/08/31 02:45:10;;;;;;;0.30;0.30;;;;;;;;;;5131430;27;20210;-59
2022/08/31 02:47:59;;;;;;;1.23;0.20;;;;;;;;;;5132917;27;20210;-59
2022/08/31 02:50:49;;;;;;;0.30;0.30;;;;;;;;;;5133405;27;20205;-59
2022/08/31 02:53:37;;;;;;;0.27;0.27;;;;;;;;;;5144949;27;20234;-59
2022/08/31 02:56:24;;;;;;;0.10;0.10;;;;;;;;;;5132955;27;20239;-60
2022/08/31 02:59:11;;;;;;;0.27;0.27;;;;;;;;;;5135596;27;20574;-59
2022/08/31 03:01:58;;;;;;;0.83;0.27;;;;;;;;;;5133301;27;20203;-59
2022/08/31 03:04:46;;;;;;;0.20;0.20;;;;;;;;;;5136898;27;20212;-59
2022/08/31 03:07:33;;;;;;;0.20;0.20;;;;;;;;;;5131699;27;20205;-60
2022/08/31 03:10:23;;;;;;;0.30;0.30;;;;;;;;;;5139070;27;20208;-59
2022/08/31 03:13:10;;;;;;;0.30;0.30;;;;;;;;;;5138203;27;20326;-59
2022/08/31 03:15:57;;;;;;;0.23;0.23;;;;;;;;;;5140601;27;20205;-59
2022/08/31 03:18:45;;;;;;;0.23;0.23;;;;;;;;;;5133174;27;20212;-59
2022/08/31 03:21:33;;;;;;;0.30;0.30;;;;;;;;;;5133144;27;20223;-59
2022/08/31 03:24:21;;;;;;;0.30;0.30;;;;;;;;;;5139479;27;20212;-59
2022/08/31 03:27:08;;;;;;;0.30;0.30;;;;;;;;;;5142888;27;20289;-60
2022/08/31 03:29:55;;;;;;;0.20;0.20;;;;;;;;;;5138793;27;20286;-60
2022/08/31 03:32:44;;;;;;;0.23;0.23;;;;;;;;;;5134318;27;20827;-59
2022/08/31 03:35:31;;;;;;;0.73;0.30;;;;;;;;;;5134559;27;20229;-59
2022/08/31 03:38:20;;;;;;;0.10;0.10;;;;;;;;;;5134750;27;20201;-59
2022/08/31 03:41:07;;;;;;;0.30;0.30;;;;;;;;;;5135706;27;20212;-60
2022/08/31 03:43:54;;;;;;;0.23;0.23;;;;;;;;;;5139616;27;20265;-59
2022/08/31 03:46:44;;;;;;;0.47;0.30;;;;;;;;;;5132044;27;20717;-59
2022/08/31 03:49:31;;;;;;;0.20;0.20;;;;;;;;;;5142053;27;20573;-60
2022/08/31 03:52:20;;;;;;;0.37;0.37;;;;;;;;;;5139172;27;20205;-59
2022/08/31 03:55:11;;;;;;;0.13;0.13;;;;;;;;;;5131346;27;20246;-60
2022/08/31 03:57:58;;;;;;;0.20;0.20;;;;;;;;;;5133103;27;20805;-60
2022/08/31 04:00:45;;;;;;;0.27;0.27;;;;;;;;;;5141641;27;20237;-59
2022/08/31 04:03:32;;;;;;;0.20;0.20;;;;;;;;;;5135146;27;20201;-59
2022/08/31 04:06:20;;;;;;;0.30;0.30;;;;;;;;;;5135449;27;20261;-59
2022/08/31 04:09:08;;;;;;;0.20;0.20;;;;;;;;;;5133433;27;20233;-59
2022/08/31 04:11:56;;;;;;;0.30;0.20;;;;;;;;;;5131242;27;20208;-59
2022/08/31 04:14:43;;;;;;;0.30;0.30;;;;;;;;;;5136295;27;20215;-59
2022/08/31 04:17:30;;;;;;;0.30;0.30;;;;;;;;;;5136988;27;20282;-59
2022/08/31 04:20:17;;;;;;;0.20;0.20;;;;;;;;;;5140399;27;20202;-59
2022/08/31 04:23:04;;;;;;;0.30;0.30;;;;;;;;;;5129964;27;20204;-59
2022/08/31 04:25:51;;;;;;;0.77;0.20;;;;;;;;;;5141163;27;20245;-59
2022/08/31 04:28:39;;;;;;;0.37;0.30;;;;;;;;;;5129557;27;20216;-60
2022/08/31 04:31:27;;;;;;;0.50;0.20;;;;;;;;;;5132424;27;20197;-59
2022/08/31 04:34:15;;;;;;;0.20;0.20;;;;;;;;;;5133429;27;20752;-59
2022/08/31 04:37:02;;;;;;;0.30;0.30;;;;;;;;;;5145104;27;20201;-59
2022/08/31 04:39:49;;;;;;;0.20;0.20;;;;;;;;;;5131787;27;20294;-59
2022/08/31 04:42:37;;;;;;;0.30;0.30;;;;;;;;;;5141225;27;20211;-59
2022/08/31 04:45:26;;;;;;;0.40;0.20;;;;;;;;;;5132816;27;20596;-59
2022/08/31 04:48:14;;;;;;;0.30;0.30;;;;;;;;;;5142085;27;20217;-59
2022/08/31 04:51:04;;;;;;;0.60;0.30;;;;;;;;;;5131735;27;20540;-62
2022/08/31 04:53:52;;;;;;;0.17;0.17;;;;;;;;;;5128492;27;20220;-59
2022/08/31 04:56:42;;;;;;;0.37;0.37;;;;;;;;;;5137240;27;20798;-59
2022/08/31 04:59:29;;;;;;;0.67;0.30;;;;;;;;;;5135861;27;20203;-59
2022/08/31 05:02:18;;;;;;;0.30;0.30;;;;;;;;;;5130127;27;20669;-59
2022/08/31 05:05:05;;;;;;;0.30;0.30;;;;;;;;;;5136735;27;20570;-59
2022/08/31 05:07:53;;;;;;;0.30;0.30;;;;;;;;;;5128889;27;20238;-59
2022/08/31 05:10:40;;;;;;;0.40;0.40;;;;;;;;;;5141683;27;20351;-59
2022/08/31 05:13:27;;;;;;;0.20;0.20;;;;;;;;;;5130671;27;20214;-59
2022/08/31 05:16:14;;;;;;;0.27;0.27;;;;;;;;;;5126739;27;20224;-59
2022/08/31 05:19:03;;;;;;;0.40;0.40;;;;;;;;;;5136356;27;20212;-59
2022/08/31 05:21:50;;;;;;;0.30;0.30;;;;;;;;;;5134721;27;20202;-59
2022/08/31 05:24:37;;;;;;;0.33;0.33;;;;;;;;;;5136909;27;20207;-59
2022/08/31 05:27:24;;;;;;;0.53;0.27;;;;;;;;;;5130684;27;20222;-59
2022/08/31 05:30:12;;;;;;;0.40;0.40;;;;;;;;;;5130720;27;20679;-59
2022/08/31 05:32:59;;;;;;;0.27;0.27;;;;;;;;;;5128176;27;20199;-59
2022/08/31 05:35:47;;;;;;;0.37;0.37;;;;;;;;;;5129099;27;20204;-59
2022/08/31 05:38:35;;;;;;;0.30;0.30;;;;;;;;;;5130299;27;20282;-59
2022/08/31 05:41:23;;;;;;;0.40;0.40;;;;;;;;;;5129115;27;20196;-59
2022/08/31 05:44:11;;;;;;;0.40;0.40;;;;;;;;;;5131923;27;20663;-59
2022/08/31 05:46:58;;;;;;;0.40;0.40;;;;;;;;;;5134969;27;20711;-59
2022/08/31 05:49:45;;;;;;;0.27;0.27;;;;;;;;;;5131182;27;20706;-59
2022/08/31 05:52:34;;;;;;;0.30;0.30;;;;;;;;;;5137372;27;20207;-59
2022/08/31 05:55:21;;;;;;;0.20;0.20;;;;;;;;;;5129276;27;20657;-59
2022/08/31 05:58:08;;;;;;;0.43;0.43;;;;;;;;;;5133844;27;20209;-59
2022/08/31 06:00:55;;;;;;;0.40;0.40;;;;;;;;;;5129309;27;20212;-60
2022/08/31 06:03:43;;;;;;;0.40;0.40;;;;;;;;;;5129747;27;20247;-60
2022/08/31 06:06:30;;;;;;;0.20;0.20;;;;;;;;;;5129847;27;20235;-59
2022/08/31 06:09:18;;;;;;;0.40;0.40;;;;;;;;;;5137881;27;20261;-59
2022/08/31 06:12:06;;;;;;;0.20;0.20;;;;;;;;;;5132214;27;20246;-60
2022/08/31 06:14:54;;;;;;;0.30;0.30;;;;;;;;;;5132414;27;20203;-60
2022/08/31 06:17:43;;;;;;;0.40;0.40;;;;;;;;;;5131323;27;20203;-59
2022/08/31 06:20:30;;;;;;;0.37;0.37;;;;;;;;;;5130951;27;20218;-60
2022/08/31 06:23:17;;;;;;;0.33;0.33;;;;;;;;;;5134977;27;20258;-60
2022/08/31 06:26:11;;;;;;;0.73;0.40;;;;;;;;;;5128880;27;20203;-59
2022/08/31 06:29:01;;;;;;;0.30;0.30;;;;;;;;;;5133711;27;20210;-59
2022/08/31 06:31:48;;;;;;;0.40;0.40;;;;;;;;;;5140045;27;20215;-59
2022/08/31 06:34:37;;;;;;;0.53;0.50;;;;;;;;;;5136623;27;20233;-59
2022/08/31 06:37:23;;;;;;;0.50;0.50;;;;;;;;;;5141773;27;20197;-60
2022/08/31 06:40:11;;;;;;;1.57;0.53;;;;;;;;;;5134214;27;20233;-59
2022/08/31 06:42:59;;;;;;;0.97;0.43;;;;;;;;;;5139068;27;20255;-60
2022/08/31 06:45:46;;;;;;;0.40;0.40;;;;;;;;;;5138188;27;20617;-59
2022/08/31 06:48:34;;;;;;;0.50;0.50;;;;;;;;;;5143500;27;20290;-60
2022/08/31 06:51:21;;;;;;;0.90;0.43;;;;;;;;;;5133688;27;20286;-59
2022/08/31 06:54:11;;;;;;;0.53;0.53;;;;;;;;;;5137283;27;20239;-59
2022/08/31 06:57:01;;;;;;;0.60;0.60;;;;;;;;;;5135697;27;20195;-59
2022/08/31 06:59:51;;;;;;;0.50;0.50;;;;;;;;;;5135106;27;20195;-59
2022/08/31 07:02:38;;;;;;;0.67;0.67;;;;;;;;;;5137657;27;20216;-59
2022/08/31 07:05:25;;;;;;;0.40;0.40;;;;;;;;;;5134270;27;20312;-59
2022/08/31 07:08:12;;;;;;;0.50;0.50;;;;;;;;;;5145460;27;20266;-59
2022/08/31 07:10:59;;;;;;;0.40;0.40;;;;;;;;;;5132078;27;20202;-60
2022/08/31 07:13:47;;;;;;;0.50;0.50;;;;;;;;;;5134266;27;20210;-59
2022/08/31 07:16:36;;;;;;;1.40;0.60;;;;;;;;;;5139144;27;20194;-59
2022/08/31 07:19:24;;;;;;;0.60;0.60;;;;;;;;;;5138682;27;20207;-59
2022/08/31 07:22:12;;;;;;;0.50;0.50;;;;;;;;;;5134039;27;20655;-59
2022/08/31 07:24:59;;;;;;;0.70;0.70;;;;;;;;;;5141553;27;20307;-59
2022/08/31 07:27:49;;;;;;;0.70;0.70;;;;;;;;;;5132835;27;20234;-59
2022/08/31 07:30:39;;;;;;;0.50;0.50;;;;;;;;;;5143650;27;20217;-59
2022/08/31 07:33:33;;;;;;;0.60;0.60;;;;;;;;;;5131587;27;20219;-59
2022/08/31 07:36:20;;;;;;;1.63;0.70;;;;;;;;;;5149159;27;20198;-60
2022/08/31 07:42:14;;;;;;;0.70;0.70;;;;;;;;;;5143464;27;20202;-60
2022/08/31 07:45:04;;;;;;;0.70;0.70;;;;;;;;;;5138068;27;20714;-60
2022/08/31 07:47:52;;;;;;;0.65;0.65;;;;;;;;;;5135855;27;20255;-59
2022/08/31 07:50:43;;;;;;;0.70;0.70;;;;;;;;;;5136836;27;20234;-60
2022/08/31 07:53:31;;;;;;;0.82;0.60;;;;;;;;;;5141739;27;20688;-63
2022/08/31 07:56:18;;;;;;;0.50;0.50;;;;;;;;;;5137891;27;20283;-60
2022/08/31 07:59:06;;;;;;;0.50;0.50;;;;;;;;;;5132234;27;20570;-59
2022/08/31 08:01:54;;;;;;;0.70;0.70;;;;;;;;;;5131095;27;20682;-58
2022/08/31 08:04:41;;;;;;;2.05;0.65;;;;;;;;;;5134092;27;20209;-58
2022/08/31 08:07:32;;;;;;;0.65;0.65;;;;;;;;;;5137104;27;20266;-58
2022/08/31 08:10:22;;;;;;;1.25;0.85;;;;;;;;;;5131996;27;20208;-58
2022/08/31 08:13:11;;;;;;;0.80;0.80;;;;;;;;;;5132834;27;20286;-58
2022/08/31 08:15:58;;;;;;;0.70;0.70;;;;;;;;;;5138291;27;20258;-57
2022/08/31 08:18:45;;;;;;;1.92;0.88;;;;;;;;;;5132400;27;20201;-58
2022/08/31 08:21:32;;;;;;;0.82;0.82;;;;;;;;;;5132670;27;20730;-58
2022/08/31 08:24:21;;;;;;;0.85;0.85;;;;;;;;;;5137284;27;20695;-58
2022/08/31 08:27:08;;;;;;;1.45;0.80;;;;;;;;;;5132114;27;20717;-58
2022/08/31 08:29:55;;;;;;;1.67;0.90;;;;;;;;;;5143070;27;20208;-58
2022/08/31 08:32:43;;;;;;;0.90;0.90;;;;;;;;;;5127918;27;20284;-58
2022/08/31 08:35:31;;;;;;;0.90;0.90;;;;;;;;;;5143310;27;20533;-58
2022/08/31 08:38:18;;;;;;;0.85;0.85;;;;;;;;;;5131028;27;20248;-58
2022/08/31 08:41:12;;;;;;;0.75;0.75;;;;;;;;;;5130896;27;20208;-58
2022/08/31 08:44:02;;;;;;;0.70;0.70;;;;;;;;;;5132521;27;20215;-58
2022/08/31 08:46:53;;;;;;;1.40;1.05;;;;;;;;;;5139697;27;20204;-57
2022/08/31 08:49:45;;;;;;;0.60;0.60;;;;;;;;;;5129929;27;20216;-58
2022/08/31 08:52:37;;;;;;;0.68;0.68;;;;;;;;;;5137830;27;20216;-58
2022/08/31 08:55:33;;;;;;;0.63;0.63;;;;;;;;;;5133224;27;20273;-57
2022/08/31 08:58:22;;;;;;;1.85;0.90;;;;;;;;;;5139527;27;20197;-59
2022/08/31 09:01:12;;;;;;;0.75;0.75;;;;;;;;;;5130568;27;20669;-58
2022/08/31 09:04:08;;;;;;;0.75;0.75;;;;;;;;;;5137676;27;20193;-58
2022/08/31 09:07:21;;;;;;;0.93;0.93;;;;;;;;;;5130503;27;20269;-57
2022/08/31 09:10:18;;;;;;;0.90;0.90;;;;;;;;;;5131005;27;20205;-58
2022/08/31 09:13:15;;;;;;;0.60;0.60;;;;;;;;;;5138933;27;20697;-58
2022/08/31 09:16:19;;;;;;;0.70;0.70;;;;;;;;;;5131698;27;20277;-58
2022/08/31 09:19:09;;;;;;;0.77;0.77;;;;;;;;;;5132237;27;20653;-58
2022/08/31 09:22:00;;;;;;;0.80;0.80;;;;;;;;;;5130275;27;20650;-58
2022/08/31 09:24:51;;;;;;;1.70;0.73;;;;;;;;;;5138034;27;20214;-58
2022/08/31 09:27:45;;;;;;;0.50;0.50;;;;;;;;;;5132541;27;20707;-57
2022/08/31 09:30:38;;;;;;;0.50;0.50;;;;;;;;;;5139697;27;20481;-58
2022/08/31 09:33:29;;;;;;;0.55;0.55;;;;;;;;;;5133570;27;20200;-58
2022/08/31 09:36:17;;;;;;;0.90;0.90;;;;;;;;;;5140694;27;20290;-58
2022/08/31 09:39:15;;;;;;;0.52;0.52;;;;;;;;;;5133959;27;20211;-58
2022/08/31 09:42:14;;;;;;;0.77;0.77;;;;;;;;;;5128526;27;20284;-58
2022/08/31 09:45:06;;;;;;;0.70;0.70;;;;;;;;;;5132142;27;20205;-58
2022/08/31 09:47:59;;;;;;;0.63;0.63;;;;;;;;;;5134225;27;20695;-58
2022/08/31 09:50:59;;;;;;;0.60;0.60;;;;;;;;;;5137015;27;20208;-58
2022/08/31 09:56:57;;;;;;;0.60;0.60;;;;;;;;;;5134437;27;20203;-58
2022/08/31 09:59:47;;;;;;;0.40;0.38;;;;;;;;;;5129351;27;20205;-57
2022/08/31 10:02:36;;;;;;;0.57;0.57;;;;;;;;;;5140118;27;20224;-58
2022/08/31 10:05:39;;;;;;;0.77;0.77;;;;;;;;;;5129764;27;20232;-57
2022/08/31 10:08:45;;;;;;;0.80;0.57;;;;;;;;;;5140533;27;20229;-58
2022/08/31 10:11:34;;;;;;;0.47;0.47;;;;;;;;;;5135068;27;20606;-57
2022/08/31 10:14:27;;;;;;;0.47;0.47;;;;;;;;;;5136821;27;20665;-58
2022/08/31 10:17:24;;;;;;;0.57;0.57;;;;;;;;;;5128078;28;20197;-58
2022/08/31 10:20:18;;;;;;;0.43;0.43;;;;;;;;;;5129049;28;20205;-58
2022/08/31 10:23:15;;;;;;;0.40;0.40;;;;;;;;;;5128802;27;20204;-58
2022/08/31 10:26:10;;;;;;;0.30;0.30;;;;;;;;;;5130339;27;20281;-58
2022/08/31 10:29:05;;;;;;;0.60;0.60;;;;;;;;;;5137176;27;20221;-58
2022/08/31 10:31:56;;;;;;;0.52;0.52;;;;;;;;;;5135174;27;20213;-58
2022/08/31 10:35:04;;;;;;;0.38;0.38;;;;;;;;;;5133779;27;20249;-59
2022/08/31 10:37:58;;;;;;;0.30;0.30;;;;;;;;;;5137391;27;20656;-58
2022/08/31 10:40:50;;;;;;;0.50;0.50;;;;;;;;;;5134591;27;20201;-59
2022/08/31 10:43:44;;;;;;;0.30;0.30;;;;;;;;;;5129651;27;20251;-59
2022/08/31 10:46:34;;;;;;;0.50;0.50;;;;;;;;;;5131393;27;20212;-58
2022/08/31 10:49:21;;;;;;;0.40;0.40;;;;;;;;;;5128292;28;20304;-58
2022/08/31 10:52:17;;;;;;;0.40;0.40;;;;;;;;;;5133177;27;20234;-58
2022/08/31 10:55:13;;;;;;;0.40;0.40;;;;;;;;;;5136335;27;20621;-58
2022/08/31 10:58:11;;;;;;;0.32;0.32;;;;;;;;;;5135133;27;20296;-58
2022/08/31 11:01:06;;;;;;;0.50;0.50;;;;;;;;;;5126652;27;20617;-58
2022/08/31 11:04:14;;;;;;;0.50;0.50;;;;;;;;;;5127981;27;20201;-58
2022/08/31 11:07:11;;;;;;;0.20;0.20;;;;;;;;;;5134589;27;20233;-58
2022/08/31 11:10:08;;;;;;;0.57;0.57;;;;;;;;;;5131905;27;20284;-58
2022/08/31 11:13:00;;;;;;;0.30;0.30;;;;;;;;;;5130549;27;20239;-59
2022/08/31 11:16:02;;;;;;;0.40;0.40;;;;;;;;;;5132002;27;20207;-59
2022/08/31 11:19:09;;;;;;;0.40;0.40;;;;;;;;;;5138872;27;20257;-59
2022/08/31 11:22:20;;;;;;;0.47;0.47;;;;;;;;;;5132143;27;20285;-59
2022/08/31 11:25:46;;;;;;;0.40;0.40;;;;;;;;;;5132658;27;20197;-59
2022/08/31 11:28:37;;;;;;;0.30;0.30;;;;;;;;;;5129824;27;20228;-59
2022/08/31 11:31:30;;;;;;;0.35;0.35;;;;;;;;;;5135130;27;20675;-59
2022/08/31 11:34:25;;;;;;;0.30;0.30;;;;;;;;;;5142381;27;20247;-59
2022/08/31 11:37:13;;;;;;;0.40;0.40;;;;;;;;;;5132721;27;20254;-59
2022/08/31 11:40:00;;;;;;;0.32;0.30;;;;;;;;;;5139946;27;20208;-59
2022/08/31 11:42:59;;;;;;;0.40;0.40;;;;;;;;;;5129101;27;20204;-59
2022/08/31 11:45:46;;;;;;;0.30;0.30;;;;;;;;;;5125012;27;20223;-59
2022/08/31 11:48:59;;;;;;;0.38;0.38;;;;;;;;;;5137735;27;20216;-62
2022/08/31 11:51:47;;;;;;;0.30;0.30;;;;;;;;;;5134640;27;20215;-59
2022/08/31 11:55:01;;;;;;;0.30;0.30;;;;;;;;;;5136627;27;20670;-59
2022/08/31 11:58:24;;;;;;;0.40;0.40;;;;;;;;;;5131126;27;20227;-59
2022/08/31 12:01:34;;;;;;;0.20;0.20;;;;;;;;;;5054713;28;20738;-59
2022/08/31 12:04:59;;;;;;;0.30;0.30;;;;;;;;;;5127407;27;20246;-59
2022/08/31 12:07:48;;;;;;;0.22;0.22;;;;;;;;;;5137606;27;20225;-59
2022/08/31 12:10:51;;;;;;;0.40;0.40;;;;;;;;;;5133371;27;20212;-59
2022/08/31 12:13:47;;;;;;;0.38;0.38;;;;;;;;;;5131344;27;20296;-59
2022/08/31 12:16:51;;;;;;;0.30;0.30;;;;;;;;;;5132159;27;20729;-59
2022/08/31 12:19:59;;;;;;;0.10;0.10;;;;;;;;;;5134322;27;20287;-59
2022/08/31 12:26:35;;;;;;;0.30;0.20;;;;;;;;;;5132076;27;20299;-59
2022/08/31 12:29:28;;;;;;;0.20;0.20;;;;;;;;;;5135005;27;20705;-58
2022/08/31 12:32:25;;;;;;;0.22;0.22;;;;;;;;;;5132641;27;20405;-58
2022/08/31 12:35:18;;;;;;;0.40;0.40;;;;;;;;;;5132842;27;20220;-58
2022/08/31 12:38:09;;;;;;;0.40;0.40;;;;;;;;;;5135016;27;20245;-59
2022/08/31 12:40:57;;;;;;;0.30;0.30;;;;;;;;;;5131372;27;20288;-59
2022/08/31 12:43:47;;;;;;;0.47;0.47;;;;;;;;;;5131359;27;20232;-58
2022/08/31 12:46:57;;;;;;;0.65;0.50;;;;;;;;;;5129593;27;20244;-59
2022/08/31 12:50:10;;;;;;;0.98;0.40;;;;;;;;;;5138446;27;20227;-59
2022/08/31 12:53:25;;;;;;;0.30;0.30;;;;;;;;;;5129967;27;20213;-59
2022/08/31 12:56:18;;;;;;;0.20;0.20;;;;;;;;;;5138256;27;20229;-58
2022/08/31 12:59:15;;;;;;;0.30;0.30;;;;;;;;;;5131741;27;20283;-59
2022/08/31 13:02:03;;;;;;;0.28;0.28;;;;;;;;;;5123637;27;20292;-59
2022/08/31 13:04:50;;;;;;;0.30;0.30;;;;;;;;;;5131000;27;20287;-58
2022/08/31 13:07:37;;;;;;;0.20;0.20;;;;;;;;;;5134404;27;20428;-59
2022/08/31 13:10:30;;;;;;;0.30;0.30;;;;;;;;;;5129810;27;20231;-59
2022/08/31 13:13:23;;;;;;;0.28;0.28;;;;;;;;;;5130555;27;20201;-59
2022/08/31 13:16:13;;;;;;;0.32;0.32;;;;;;;;;;5132574;27;20212;-59
2022/08/31 13:19:04;;;;;;;0.65;0.38;;;;;;;;;;5133741;27;20206;-59
2022/08/31 13:21:54;;;;;;;0.38;0.38;;;;;;;;;;5138768;27;20227;-58
2022/08/31 13:24:43;;;;;;;0.40;0.30;;;;;;;;;;5128430;27;20209;-59
2022/08/31 13:27:37;;;;;;;0.20;0.20;;;;;;;;;;5132451;27;20722;-60
2022/08/31 13:30:25;;;;;;;0.35;0.35;;;;;;;;;;5128442;27;20225;-59
2022/08/31 13:33:22;;;;;;;0.30;0.30;;;;;;;;;;5129823;27;20216;-59
2022/08/31 13:36:22;;;;;;;0.38;0.22;;;;;;;;;;5131530;27;20205;-59
2022/08/31 13:39:13;;;;;;;0.25;0.25;;;;;;;;;;5135131;27;20253;-60
2022/08/31 13:42:04;;;;;;;0.30;0.28;;;;;;;;;;5133189;27;20299;-59
2022/08/31 13:44:57;;;;;;;0.25;0.25;;;;;;;;;;5135910;27;20208;-59
2022/08/31 13:47:52;;;;;;;0.20;0.20;;;;;;;;;;5132272;27;20593;-58
2022/08/31 13:50:48;;;;;;;0.20;0.20;;;;;;;;;;5137943;27;20212;-59
2022/08/31 13:53:39;;;;;;;0.30;0.30;;;;;;;;;;5131639;27;20204;-59
2022/08/31 13:56:57;;;;;;;0.40;0.40;;;;;;;;;;5139061;27;20196;-59
2022/08/31 13:59:45;;;;;;;0.20;0.20;;;;;;;;;;5128301;27;20197;-58
2022/08/31 14:02:36;;;;;;;0.50;0.50;;;;;;;;;;5132411;27;20664;-59
2022/08/31 14:05:29;;;;;;;0.30;0.30;;;;;;;;;;5130317;27;20221;-58
2022/08/31 14:08:23;;;;;;;0.38;0.38;;;;;;;;;;5128274;27;20385;-59
2022/08/31 14:11:13;;;;;;;0.30;0.30;;;;;;;;;;5131554;27;20208;-58
2022/08/31 14:14:06;;;;;;;0.28;0.20;;;;;;;;;;5131058;27;20216;-59
2022/08/31 14:16:57;;;;;;;0.25;0.25;;;;;;;;;;5132946;27;20204;-58
2022/08/31 14:19:45;;;;;;;0.28;0.28;;;;;;;;;;5131641;27;20209;-59
2022/08/31 14:22:34;;;;;;;0.20;0.20;;;;;;;;;;5131428;27;20208;-59
2022/08/31 14:25:21;;;;;;;0.30;0.20;;;;;;;;;;5127933;27;20592;-58
2022/08/31 14:28:08;;;;;;;0.40;0.40;;;;;;;;;;5133259;27;20211;-59
2022/08/31 14:30:56;;;;;;;0.30;0.30;;;;;;;;;;5128505;27;20657;-59
2022/08/31 14:33:45;;;;;;;0.20;0.20;;;;;;;;;;5129321;27;20565;-58
2022/08/31 14:36:36;;;;;;;0.43;0.43;;;;;;;;;;5127929;27;20733;-59
2022/08/31 14:39:28;;;;;;;0.30;0.30;;;;;;;;;;5132241;27;20226;-59
2022/08/31 14:42:19;;;;;;;0.38;0.38;;;;;;;;;;5136722;27;20200;-60
2022/08/31 14:45:11;;;;;;;0.20;0.20;;;;;;;;;;5136176;27;20263;-59
2022/08/31 14:47:58;;;;;;;0.30;0.30;;;;;;;;;;5132598;27;20294;-59
2022/08/31 14:50:45;;;;;;;0.20;0.20;;;;;;;;;;5133798;27;20701;-59
2022/08/31 14:53:37;;;;;;;0.20;0.20;;;;;;;;;;5138332;27;20265;-59
2022/08/31 14:56:29;;;;;;;0.50;0.37;;;;;;;;;;5137771;27;20291;-59
2022/08/31 14:59:19;;;;;;;0.43;0.43;;;;;;;;;;5139771;27;20198;-58
2022/08/31 15:02:08;;;;;;;0.40;0.40;;;;;;;;;;5135794;27;20207;-59
2022/08/31 15:05:05;;;;;;;0.30;0.30;;;;;;;;;;5142003;27;20215;-60
2022/08/31 15:07:53;;;;;;;0.30;0.30;;;;;;;;;;5133297;27;20852;-58
2022/08/31 15:10:41;;;;;;;0.20;0.20;;;;;;;;;;5138311;27;20760;-58
2022/08/31 15:13:32;;;;;;;0.30;0.30;;;;;;;;;;5133431;27;20203;-59
2022/08/31 15:16:20;;;;;;;0.37;0.37;;;;;;;;;;5139547;27;20564;-59
2022/08/31 15:19:11;;;;;;;0.20;0.20;;;;;;;;;;5138490;27;20279;-59
2022/08/31 15:22:07;;;;;;;0.50;0.47;;;;;;;;;;5139512;27;20255;-59
2022/08/31 15:24:55;;;;;;;0.30;0.30;;;;;;;;;;5132901;27;20212;-59
2022/08/31 15:27:44;;;;;;;0.20;0.20;;;;;;;;;;5139547;27;20207;-59
2022/08/31 15:30:32;;;;;;;1.90;0.30;;;;;;;;;;5133543;27;20228;-58
2022/08/31 15:33:21;;;;;;;0.30;0.30;;;;;;;;;;5134240;27;20208;-59
2022/08/31 15:36:11;;;;;;;0.30;0.30;;;;;;;;;;5133192;27;20204;-58
2022/08/31 15:38:58;;;;;;;0.20;0.20;;;;;;;;;;5143411;27;20213;-58
2022/08/31 15:41:45;;;;;;;0.30;0.30;;;;;;;;;;5135750;27;20690;-59
2022/08/31 15:44:34;;;;;;;0.30;0.30;;;;;;;;;;5136042;27;20204;-58
2022/08/31 15:50:28;;;;;;;0.20;0.20;;;;;;;;;;5138365;27;20328;-59
2022/08/31 15:53:17;;;;;;;0.30;0.30;;;;;;;;;;5130183;27;20201;-58
2022/08/31 15:56:07;;;;;;;0.23;0.23;;;;;;;;;;5139079;27;20203;-58
2022/08/31 15:58:57;;;;;;;1.20;0.37;;;;;;;;;;5135072;27;20202;-59
2022/08/31 16:01:45;;;;;;;0.30;0.30;;;;;;;;;;5138146;27;20335;-59
2022/08/31 16:04:37;;;;;;;0.30;0.30;;;;;;;;;;5133984;27;20257;-59
2022/08/31 16:07:25;;;;;;;0.30;0.30;;;;;;;;;;5132729;27;20212;-59
2022/08/31 16:10:14;;;;;;;0.30;0.30;;;;;;;;;;5132686;27;20238;-59
2022/08/31 16:13:06;;;;;;;0.27;0.27;;;;;;;;;;5130934;27;20211;-58
2022/08/31 16:15:53;;;;;;;0.30;0.30;;;;;;;;;;5134300;27;20276;-58
2022/08/31 16:18:42;;;;;;;0.13;0.13;;;;;;;;;;5137374;27;20212;-59
2022/08/31 16:21:29;;;;;;;0.30;0.30;;;;;;;;;;5136285;27;20272;-59
2022/08/31 16:24:18;;;;;;;0.27;0.27;;;;;;;;;;5131556;27;20674;-59
2022/08/31 16:27:07;;;;;;;0.20;0.20;;;;;;;;;;5132362;27;20218;-59
2022/08/31 16:29:55;;;;;;;0.60;0.20;;;;;;;;;;5136605;27;20224;-59
2022/08/31 16:32:43;;;;;;;0.30;0.30;;;;;;;;;;5136323;27;20217;-59
2022/08/31 16:35:31;;;;;;;0.30;0.30;;;;;;;;;;5134728;27;20678;-59
2022/08/31 16:38:18;;;;;;;0.10;0.10;;;;;;;;;;5131375;27;20203;-58
2022/08/31 16:41:06;;;;;;;0.30;0.30;;;;;;;;;;5131829;27;20596;-58
2022/08/31 16:43:53;;;;;;;0.30;0.30;;;;;;;;;;5144508;27;20678;-58
2022/08/31 16:46:40;;;;;;;0.13;0.13;;;;;;;;;;5131652;27;20216;-59
2022/08/31 16:49:39;;;;;;;0.30;0.30;;;;;;;;;;5135346;27;20369;-60
2022/08/31 16:52:29;;;;;;;0.10;0.10;;;;;;;;;;5128491;27;20205;-58
2022/08/31 16:55:16;;;;;;;0.33;0.33;;;;;;;;;;5135365;27;20204;-59
2022/08/31 16:58:03;;;;;;;0.20;0.20;;;;;;;;;;5134116;27;20205;-58
2022/08/31 17:00:50;;;;;;;0.10;0.10;;;;;;;;;;5131828;27;20584;-59
2022/08/31 17:03:37;;;;;;;0.40;0.20;;;;;;;;;;5136458;27;20201;-59
2022/08/31 17:06:26;;;;;;;0.30;0.30;;;;;;;;;;5129864;27;20226;-59
2022/08/31 17:09:21;;;;;;;0.27;0.27;;;;;;;;;;5128771;27;20232;-58
2022/08/31 17:12:11;;;;;;;0.30;0.30;;;;;;;;;;5138948;27;20208;-58
2022/08/31 17:14:59;;;;;;;0.40;0.40;;;;;;;;;;5136521;27;20202;-59
2022/08/31 17:17:46;;;;;;;0.27;0.27;;;;;;;;;;5130969;27;20206;-58
2022/08/31 17:20:33;;;;;;;0.20;0.20;;;;;;;;;;5130665;27;20200;-59